sensor_id;sensor_type;location;lat;lon;timestamp;noise_LAeq;noise_LA_min;noise_LA_max;noise_LA01;noise_LA95
58303;Laerm;44109;52.398;7.024;2023-07-24T00:01:09;48.47;33.64;58.12;;
58303;Laerm;44109;52.398;7.024;2023-07-24T00:03:37;48.36;33.22;57.99;;
58303;Laerm;44109;52.398;7.024;2023-07-24T00:06:05;48.34;33.01;57.91;;
58303;Laerm;44109;52.398;7.024;2023-07-24T00:08:33;48.33;32.88;57.89;;
58303;Laerm;44109;52.398;7.024;2023-07-24T00:11:01;48.50;33.89;58.12;;
58303;Laerm;44109;52.398;7.024;2023-07-24T00:13:30;48.36;33.21;58.06;;
58303;Laerm;44109;52.398;7.024;2023-07-24T00:15:58;48.60;33.22;58.06;;
58303;Laerm;44109;52.398;7.024;2023-07-24T00:18:25;48.58;33.98;58.02;;
58303;Laerm;44109;52.398;7.024;2023-07-24T00:20:53;48.40;33.69;58.00;;
58303;Laerm;44109;52.398;7.024;2023-07-24T00:23:21;48.58;34.10;58.27;;
58303;Laerm;44109;52.398;7.024;2023-07-24T00:25:50;48.62;35.90;58.05;;
58303;Laerm;44109;52.398;7.024;2023-07-24T00:28:17;48.47;33.73;58.08;;
58303;Laerm;44109;52.398;7.024;2023-07-24T00:30:45;48.47;33.34;57.89;;
58303;Laerm;44109;52.398;7.024;2023-07-24T00:33:13;48.59;35.37;58.22;;
58303;Laerm;44109;52.398;7.024;2023-07-24T00:35:40;48.37;32.98;58.00;;
58303;Laerm;44109;52.398;7.024;2023-07-24T00:38:08;48.32;32.95;58.14;;
58303;Laerm;44109;52.398;7.024;2023-07-24T00:40:36;48.45;33.19;58.14;;
58303;Laerm;44109;52.398;7.024;2023-07-24T00:43:05;48.49;33.17;58.05;;
58303;Laerm;44109;52.398;7.024;2023-07-24T00:45:33;48.33;32.88;58.33;;
58303;Laerm;44109;52.398;7.024;2023-07-24T00:48:01;48.31;33.58;58.02;;
58303;Laerm;44109;52.398;7.024;2023-07-24T00:50:29;48.30;32.77;57.92;;
58303;Laerm;44109;52.398;7.024;2023-07-24T00:52:58;48.26;33.30;58.44;;
58303;Laerm;44109;52.398;7.024;2023-07-24T00:55:25;48.27;33.33;57.86;;
58303;Laerm;44109;52.398;7.024;2023-07-24T00:57:54;48.18;32.15;58.13;;
58303;Laerm;44109;52.398;7.024;2023-07-24T01:00:23;48.13;33.24;58.09;;
58303;Laerm;44109;52.398;7.024;2023-07-24T01:02:51;48.18;32.89;57.98;;
58303;Laerm;44109;52.398;7.024;2023-07-24T01:05:22;48.19;33.36;57.99;;
58303;Laerm;44109;52.398;7.024;2023-07-24T01:07:50;48.23;32.15;58.42;;
58303;Laerm;44109;52.398;7.024;2023-07-24T01:10:19;48.15;32.71;58.06;;
58303;Laerm;44109;52.398;7.024;2023-07-24T01:13:02;47.91;32.92;57.99;;
58303;Laerm;44109;52.398;7.024;2023-07-24T01:15:38;47.62;32.38;57.90;;
58303;Laerm;44109;52.398;7.024;2023-07-24T01:18:09;47.96;32.34;57.72;;
58303;Laerm;44109;52.398;7.024;2023-07-24T01:20:44;47.96;32.84;57.87;;
58303;Laerm;44109;52.398;7.024;2023-07-24T01:23:34;47.57;33.01;58.06;;
58303;Laerm;44109;52.398;7.024;2023-07-24T01:26:07;47.67;33.21;57.87;;
58303;Laerm;44109;52.398;7.024;2023-07-24T01:28:35;48.12;32.50;57.93;;
58303;Laerm;44109;52.398;7.024;2023-07-24T01:31:03;48.08;33.06;57.88;;
58303;Laerm;44109;52.398;7.024;2023-07-24T01:33:31;48.01;33.25;57.74;;
58303;Laerm;44109;52.398;7.024;2023-07-24T01:36:03;47.85;33.01;57.92;;
58303;Laerm;44109;52.398;7.024;2023-07-24T01:38:34;47.91;32.99;57.73;;
58303;Laerm;44109;52.398;7.024;2023-07-24T01:41:03;47.96;32.33;57.81;;
58303;Laerm;44109;52.398;7.024;2023-07-24T01:43:32;47.97;33.25;57.68;;
58303;Laerm;44109;52.398;7.024;2023-07-24T01:46:00;48.00;33.28;57.69;;
58303;Laerm;44109;52.398;7.024;2023-07-24T01:48:27;48.29;33.52;57.74;;
58303;Laerm;44109;52.398;7.024;2023-07-24T01:50:55;47.82;33.10;57.62;;
58303;Laerm;44109;52.398;7.024;2023-07-24T01:53:22;47.73;33.38;57.52;;
58303;Laerm;44109;52.398;7.024;2023-07-24T01:55:50;47.69;33.47;57.59;;
58303;Laerm;44109;52.398;7.024;2023-07-24T01:58:18;47.63;33.30;58.02;;
58303;Laerm;44109;52.398;7.024;2023-07-24T02:00:47;47.65;33.37;60.63;;
58303;Laerm;44109;52.398;7.024;2023-07-24T02:03:15;47.69;33.61;57.48;;
58303;Laerm;44109;52.398;7.024;2023-07-24T02:05:42;47.61;33.47;57.32;;
58303;Laerm;44109;52.398;7.024;2023-07-24T02:08:10;47.92;33.79;57.54;;
58303;Laerm;44109;52.398;7.024;2023-07-24T02:10:37;47.67;33.66;57.67;;
58303;Laerm;44109;52.398;7.024;2023-07-24T02:13:05;47.65;33.48;57.24;;
58303;Laerm;44109;52.398;7.024;2023-07-24T02:15:33;47.55;33.46;57.43;;
58303;Laerm;44109;52.398;7.024;2023-07-24T02:18:02;47.62;32.85;57.46;;
58303;Laerm;44109;52.398;7.024;2023-07-24T02:20:30;47.69;33.50;57.38;;
58303;Laerm;44109;52.398;7.024;2023-07-24T02:22:57;47.75;33.06;57.69;;
58303;Laerm;44109;52.398;7.024;2023-07-24T02:25:25;47.83;33.76;57.71;;
58303;Laerm;44109;52.398;7.024;2023-07-24T02:27:53;47.71;33.62;57.72;;
58303;Laerm;44109;52.398;7.024;2023-07-24T02:30:20;47.74;33.10;57.40;;
58303;Laerm;44109;52.398;7.024;2023-07-24T02:32:48;47.70;32.54;57.47;;
58303;Laerm;44109;52.398;7.024;2023-07-24T02:35:17;47.67;33.93;57.62;;
58303;Laerm;44109;52.398;7.024;2023-07-24T02:37:45;47.82;34.13;57.70;;
58303;Laerm;44109;52.398;7.024;2023-07-24T02:40:13;47.72;34.13;57.57;;
58303;Laerm;44109;52.398;7.024;2023-07-24T02:42:40;47.89;34.22;57.38;;
58303;Laerm;44109;52.398;7.024;2023-07-24T02:45:09;47.80;34.58;57.53;;
58303;Laerm;44109;52.398;7.024;2023-07-24T02:47:37;48.02;34.22;57.94;;
58303;Laerm;44109;52.398;7.024;2023-07-24T02:50:06;48.11;33.75;57.92;;
58303;Laerm;44109;52.398;7.024;2023-07-24T02:52:35;48.01;33.60;57.79;;
58303;Laerm;44109;52.398;7.024;2023-07-24T02:55:03;47.95;33.83;57.78;;
58303;Laerm;44109;52.398;7.024;2023-07-24T02:57:30;47.75;33.46;57.77;;
58303;Laerm;44109;52.398;7.024;2023-07-24T02:59:58;47.84;33.11;57.79;;
58303;Laerm;44109;52.398;7.024;2023-07-24T03:02:26;48.10;33.99;57.89;;
58303;Laerm;44109;52.398;7.024;2023-07-24T03:04:53;47.97;32.64;57.76;;
58303;Laerm;44109;52.398;7.024;2023-07-24T03:07:21;48.21;33.49;57.99;;
58303;Laerm;44109;52.398;7.024;2023-07-24T03:09:50;48.13;33.47;57.92;;
58303;Laerm;44109;52.398;7.024;2023-07-24T03:12:18;48.23;34.10;57.86;;
58303;Laerm;44109;52.398;7.024;2023-07-24T03:14:46;48.14;34.55;57.88;;
58303;Laerm;44109;52.398;7.024;2023-07-24T03:17:14;48.05;34.04;58.11;;
58303;Laerm;44109;52.398;7.024;2023-07-24T03:19:42;48.61;35.23;57.81;;
58303;Laerm;44109;52.398;7.024;2023-07-24T03:22:09;48.28;34.22;60.70;;
58303;Laerm;44109;52.398;7.024;2023-07-24T03:24:37;48.07;33.98;57.83;;
58303;Laerm;44109;52.398;7.024;2023-07-24T03:27:06;48.14;33.92;57.96;;
58303;Laerm;44109;52.398;7.024;2023-07-24T03:29:34;48.46;33.82;59.48;;
58303;Laerm;44109;52.398;7.024;2023-07-24T03:32:05;48.65;34.25;61.01;;
58303;Laerm;44109;52.398;7.024;2023-07-24T03:34:33;48.19;33.39;57.89;;
58303;Laerm;44109;52.398;7.024;2023-07-24T03:37:00;48.22;33.89;58.25;;
58303;Laerm;44109;52.398;7.024;2023-07-24T03:39:28;48.30;33.75;61.28;;
58303;Laerm;44109;52.398;7.024;2023-07-24T03:41:55;48.47;35.07;58.43;;
58303;Laerm;44109;52.398;7.024;2023-07-24T03:44:24;48.15;33.69;58.10;;
58303;Laerm;44109;52.398;7.024;2023-07-24T03:46:52;48.14;33.59;57.67;;
58303;Laerm;44109;52.398;7.024;2023-07-24T03:49:19;48.44;33.83;64.34;;
58303;Laerm;44109;52.398;7.024;2023-07-24T03:51:48;48.17;34.00;57.75;;
58303;Laerm;44109;52.398;7.024;2023-07-24T03:54:16;48.07;33.35;57.63;;
58303;Laerm;44109;52.398;7.024;2023-07-24T03:56:43;48.05;33.54;57.99;;
58303;Laerm;44109;52.398;7.024;2023-07-24T03:59:11;48.24;34.39;57.97;;
58303;Laerm;44109;52.398;7.024;2023-07-24T04:01:40;48.29;34.61;58.00;;
58303;Laerm;44109;52.398;7.024;2023-07-24T04:04:08;48.39;33.51;59.42;;
58303;Laerm;44109;52.398;7.024;2023-07-24T04:06:36;50.23;36.23;78.30;;
58303;Laerm;44109;52.398;7.024;2023-07-24T04:09:03;48.92;36.09;61.97;;
58303;Laerm;44109;52.398;7.024;2023-07-24T04:11:31;49.17;38.42;65.42;;
58303;Laerm;44109;52.398;7.024;2023-07-24T04:13:58;50.37;39.11;77.97;;
58303;Laerm;44109;52.398;7.024;2023-07-24T04:16:26;48.72;35.49;60.53;;
58303;Laerm;44109;52.398;7.024;2023-07-24T04:18:55;50.71;35.31;77.92;;
58303;Laerm;44109;52.398;7.024;2023-07-24T04:21:23;49.29;34.95;72.98;;
58303;Laerm;44109;52.398;7.024;2023-07-24T04:23:50;48.83;35.18;65.54;;
58303;Laerm;44109;52.398;7.024;2023-07-24T04:26:18;48.92;36.27;58.24;;
58303;Laerm;44109;52.398;7.024;2023-07-24T04:28:45;48.66;34.80;61.04;;
58303;Laerm;44109;52.398;7.024;2023-07-24T04:31:13;48.81;35.43;58.49;;
58303;Laerm;44109;52.398;7.024;2023-07-24T04:33:41;54.07;36.86;85.22;;
58303;Laerm;44109;52.398;7.024;2023-07-24T04:36:10;49.66;36.36;70.22;;
58303;Laerm;44109;52.398;7.024;2023-07-24T04:38:37;49.97;38.28;73.03;;
58303;Laerm;44109;52.398;7.024;2023-07-24T04:41:05;52.01;39.79;77.58;;
58303;Laerm;44109;52.398;7.024;2023-07-24T04:43:32;53.71;42.00;83.49;;
58303;Laerm;44109;52.398;7.024;2023-07-24T04:46:00;54.24;43.99;82.17;;
58303;Laerm;44109;52.398;7.024;2023-07-24T04:48:28;54.46;43.66;80.11;;
58303;Laerm;44109;52.398;7.024;2023-07-24T04:50:56;55.75;45.50;84.06;;
58303;Laerm;44109;52.398;7.024;2023-07-24T04:53:25;57.24;41.16;82.43;;
58303;Laerm;44109;52.398;7.024;2023-07-24T04:55:54;53.79;39.65;77.88;;
58303;Laerm;44109;52.398;7.024;2023-07-24T04:58:21;55.40;41.02;80.25;;
58303;Laerm;44109;52.398;7.024;2023-07-24T05:00:49;64.06;37.21;98.52;;
58303;Laerm;44109;52.398;7.024;2023-07-24T05:03:17;50.10;36.27;76.10;;
58303;Laerm;44109;52.398;7.024;2023-07-24T05:05:48;50.79;35.84;78.12;;
58303;Laerm;44109;52.398;7.024;2023-07-24T05:08:21;50.14;38.87;69.12;;
58303;Laerm;44109;52.398;7.024;2023-07-24T05:10:55;50.70;39.42;75.29;;
58303;Laerm;44109;52.398;7.024;2023-07-24T05:13:23;50.07;38.94;68.44;;
58303;Laerm;44109;52.398;7.024;2023-07-24T05:15:50;49.50;37.53;70.80;;
58303;Laerm;44109;52.398;7.024;2023-07-24T05:18:18;49.11;36.59;66.02;;
58303;Laerm;44109;52.398;7.024;2023-07-24T05:20:47;52.95;37.49;81.22;;
58303;Laerm;44109;52.398;7.024;2023-07-24T05:23:17;58.23;44.25;84.01;;
58303;Laerm;44109;52.398;7.024;2023-07-24T05:25:45;54.62;38.16;81.59;;
58303;Laerm;44109;52.398;7.024;2023-07-24T05:28:14;59.17;38.06;91.88;;
58303;Laerm;44109;52.398;7.024;2023-07-24T05:30:41;57.62;42.88;85.52;;
58303;Laerm;44109;52.398;7.024;2023-07-24T05:33:09;66.29;45.28;96.43;;
58303;Laerm;44109;52.398;7.024;2023-07-24T05:35:36;66.18;46.17;100.61;;
58303;Laerm;44109;52.398;7.024;2023-07-24T05:38:04;68.32;50.62;96.98;;
58303;Laerm;44109;52.398;7.024;2023-07-24T05:40:32;66.81;47.21;96.00;;
58303;Laerm;44109;52.398;7.024;2023-07-24T05:42:59;60.25;43.68;89.13;;
58303;Laerm;44109;52.398;7.024;2023-07-24T05:45:28;63.36;42.54;94.55;;
58303;Laerm;44109;52.398;7.024;2023-07-24T05:47:56;58.98;38.78;93.81;;
58303;Laerm;44109;52.398;7.024;2023-07-24T05:50:23;65.10;38.14;96.56;;
58303;Laerm;44109;52.398;7.024;2023-07-24T05:52:51;71.78;39.89;100.41;;
58303;Laerm;44109;52.398;7.024;2023-07-24T05:55:18;73.00;44.82;99.99;;
58303;Laerm;44109;52.398;7.024;2023-07-24T05:57:46;68.69;39.99;101.19;;
58303;Laerm;44109;52.398;7.024;2023-07-24T06:00:14;67.02;38.89;98.24;;
58303;Laerm;44109;52.398;7.024;2023-07-24T06:02:43;67.50;37.91;101.84;;
58303;Laerm;44109;52.398;7.024;2023-07-24T06:05:11;60.18;38.55;94.16;;
58303;Laerm;44109;52.398;7.024;2023-07-24T06:07:38;69.78;39.19;99.79;;
58303;Laerm;44109;52.398;7.024;2023-07-24T06:10:07;64.38;38.86;94.34;;
58303;Laerm;44109;52.398;7.024;2023-07-24T06:12:35;62.20;41.99;93.50;;
58303;Laerm;44109;52.398;7.024;2023-07-24T06:15:04;71.77;42.03;103.93;;
58303;Laerm;44109;52.398;7.024;2023-07-24T06:17:32;65.26;40.99;98.16;;
58303;Laerm;44109;52.398;7.024;2023-07-24T06:20:01;69.56;40.15;97.56;;
58303;Laerm;44109;52.398;7.024;2023-07-24T06:22:29;65.67;43.16;94.35;;
58303;Laerm;44109;52.398;7.024;2023-07-24T06:24:57;65.40;41.21;98.04;;
58303;Laerm;44109;52.398;7.024;2023-07-24T06:27:25;67.47;40.95;99.59;;
58303;Laerm;44109;52.398;7.024;2023-07-24T06:29:52;62.52;38.05;95.56;;
58303;Laerm;44109;52.398;7.024;2023-07-24T06:32:20;58.16;38.45;88.22;;
58303;Laerm;44109;52.398;7.024;2023-07-24T06:34:47;63.29;37.90;98.75;;
58303;Laerm;44109;52.398;7.024;2023-07-24T06:37:16;62.56;40.88;92.41;;
58303;Laerm;44109;52.398;7.024;2023-07-24T06:39:44;66.36;39.01;102.28;;
58303;Laerm;44109;52.398;7.024;2023-07-24T06:42:11;65.60;43.40;98.01;;
58303;Laerm;44109;52.398;7.024;2023-07-24T06:44:39;61.18;40.52;95.07;;
58303;Laerm;44109;52.398;7.024;2023-07-24T06:47:07;54.73;40.49;86.30;;
58303;Laerm;44109;52.398;7.024;2023-07-24T06:49:34;52.18;38.52;78.02;;
58303;Laerm;44109;52.398;7.024;2023-07-24T06:52:02;66.59;39.58;101.27;;
58303;Laerm;44109;52.398;7.024;2023-07-24T06:54:31;58.91;37.35;89.77;;
58303;Laerm;44109;52.398;7.024;2023-07-24T06:56:59;54.63;38.11;84.43;;
58303;Laerm;44109;52.398;7.024;2023-07-24T06:59:26;55.00;38.30;70.60;;
58303;Laerm;44109;52.398;7.024;2023-07-24T07:01:54;58.07;38.89;81.51;;
58303;Laerm;44109;52.398;7.024;2023-07-24T07:04:22;56.99;37.70;91.56;;
58303;Laerm;44109;52.398;7.024;2023-07-24T07:06:49;54.13;36.86;83.32;;
58303;Laerm;44109;52.398;7.024;2023-07-24T07:09:17;52.60;37.55;76.65;;
58303;Laerm;44109;52.398;7.024;2023-07-24T07:11:46;54.12;37.49;83.70;;
58303;Laerm;44109;52.398;7.024;2023-07-24T07:14:13;62.58;37.24;92.84;;
58303;Laerm;44109;52.398;7.024;2023-07-24T07:16:41;50.83;36.82;70.91;;
58303;Laerm;44109;52.398;7.024;2023-07-24T07:19:08;49.98;38.90;68.01;;
58303;Laerm;44109;52.398;7.024;2023-07-24T07:21:36;49.73;36.26;66.33;;
58303;Laerm;44109;52.398;7.024;2023-07-24T07:24:04;49.28;37.07;68.35;;
58303;Laerm;44109;52.398;7.024;2023-07-24T07:26:32;50.89;35.24;82.34;;
58303;Laerm;44109;52.398;7.024;2023-07-24T07:29:01;54.12;36.80;81.26;;
58303;Laerm;44109;52.398;7.024;2023-07-24T07:31:29;55.45;36.67;89.10;;
58303;Laerm;44109;52.398;7.024;2023-07-24T07:33:56;49.48;36.97;68.06;;
58303;Laerm;44109;52.398;7.024;2023-07-24T07:36:24;50.48;37.88;72.14;;
58303;Laerm;44109;52.398;7.024;2023-07-24T07:38:51;57.16;36.04;92.38;;
58303;Laerm;44109;52.398;7.024;2023-07-24T07:41:19;49.65;36.70;68.88;;
58303;Laerm;44109;52.398;7.024;2023-07-24T07:43:47;49.02;37.50;58.19;;
58303;Laerm;44109;52.398;7.024;2023-07-24T07:46:16;49.67;37.43;72.26;;
58303;Laerm;44109;52.398;7.024;2023-07-24T07:48:43;55.69;38.25;69.19;;
58303;Laerm;44109;52.398;7.024;2023-07-24T07:51:12;55.64;36.27;72.24;;
58303;Laerm;44109;52.398;7.024;2023-07-24T07:53:40;56.16;36.82;76.64;;
58303;Laerm;44109;52.398;7.024;2023-07-24T07:56:07;50.06;38.78;66.87;;
58303;Laerm;44109;52.398;7.024;2023-07-24T07:58:35;50.60;42.06;66.16;;
58303;Laerm;44109;52.398;7.024;2023-07-24T08:01:04;52.74;41.13;71.02;;
58303;Laerm;44109;52.398;7.024;2023-07-24T08:03:33;50.19;39.95;70.92;;
58303;Laerm;44109;52.398;7.024;2023-07-24T08:06:00;49.83;40.08;66.80;;
58303;Laerm;44109;52.398;7.024;2023-07-24T08:08:28;52.90;38.78;68.11;;
58303;Laerm;44109;52.398;7.024;2023-07-24T08:10:56;51.83;40.41;69.69;;
58303;Laerm;44109;52.398;7.024;2023-07-24T08:13:23;55.71;40.30;89.14;;
58303;Laerm;44109;52.398;7.024;2023-07-24T08:15:51;53.31;38.30;70.69;;
58303;Laerm;44109;52.398;7.024;2023-07-24T08:18:19;53.30;37.99;71.74;;
58303;Laerm;44109;52.398;7.024;2023-07-24T08:20:47;53.13;37.56;76.51;;
58303;Laerm;44109;52.398;7.024;2023-07-24T08:23:15;53.56;36.66;75.05;;
58303;Laerm;44109;52.398;7.024;2023-07-24T08:25:51;50.73;37.13;68.15;;
58303;Laerm;44109;52.398;7.024;2023-07-24T08:28:19;50.56;37.73;70.54;;
58303;Laerm;44109;52.398;7.024;2023-07-24T08:30:56;53.48;39.11;70.94;;
58303;Laerm;44109;52.398;7.024;2023-07-24T08:33:24;55.31;38.17;69.74;;
58303;Laerm;44109;52.398;7.024;2023-07-24T08:36:05;55.67;38.81;73.26;;
58303;Laerm;44109;52.398;7.024;2023-07-24T08:38:32;49.75;39.34;70.82;;
58303;Laerm;44109;52.398;7.024;2023-07-24T08:41:05;53.25;41.06;76.56;;
58303;Laerm;44109;52.398;7.024;2023-07-24T08:43:35;51.09;37.92;69.35;;
58303;Laerm;44109;52.398;7.024;2023-07-24T08:46:04;49.14;38.78;63.26;;
58303;Laerm;44109;52.398;7.024;2023-07-24T08:48:33;49.09;38.18;64.46;;
58303;Laerm;44109;52.398;7.024;2023-07-24T08:51:05;49.74;38.29;67.84;;
58303;Laerm;44109;52.398;7.024;2023-07-24T08:53:34;47.91;36.51;57.36;;
58303;Laerm;44109;52.398;7.024;2023-07-24T08:56:03;48.03;37.04;59.36;;
58303;Laerm;44109;52.398;7.024;2023-07-24T08:58:31;47.92;38.16;57.68;;
58303;Laerm;44109;52.398;7.024;2023-07-24T09:01:01;49.25;40.44;57.78;;
58303;Laerm;44109;52.398;7.024;2023-07-24T09:03:30;50.60;41.29;58.37;;
58303;Laerm;44109;52.398;7.024;2023-07-24T09:05:58;51.09;43.00;62.92;;
58303;Laerm;44109;52.398;7.024;2023-07-24T09:08:33;50.34;41.61;66.89;;
58303;Laerm;44109;52.398;7.024;2023-07-24T09:11:03;56.72;40.58;89.74;;
58303;Laerm;44109;52.398;7.024;2023-07-24T09:13:31;51.93;43.28;67.78;;
58303;Laerm;44109;52.398;7.024;2023-07-24T09:15:59;51.05;41.68;69.03;;
58303;Laerm;44109;52.398;7.024;2023-07-24T09:18:37;51.58;40.70;68.41;;
58303;Laerm;44109;52.398;7.024;2023-07-24T09:21:05;50.77;39.38;70.44;;
58303;Laerm;44109;52.398;7.024;2023-07-24T09:23:34;48.66;38.58;66.45;;
58303;Laerm;44109;52.398;7.024;2023-07-24T09:26:06;50.19;36.88;71.22;;
58303;Laerm;44109;52.398;7.024;2023-07-24T09:28:35;50.26;38.75;68.83;;
58303;Laerm;44109;52.398;7.024;2023-07-24T09:31:02;48.16;38.83;64.58;;
58303;Laerm;44109;52.398;7.024;2023-07-24T09:33:35;50.38;39.16;71.16;;
58303;Laerm;44109;52.398;7.024;2023-07-24T09:36:04;51.04;38.37;70.80;;
58303;Laerm;44109;52.398;7.024;2023-07-24T09:38:35;50.08;39.47;67.18;;
58303;Laerm;44109;52.398;7.024;2023-07-24T09:41:04;52.51;41.20;67.77;;
58303;Laerm;44109;52.398;7.024;2023-07-24T09:43:33;54.59;41.27;69.57;;
58303;Laerm;44109;52.398;7.024;2023-07-24T09:46:04;62.48;41.34;95.58;;
58303;Laerm;44109;52.398;7.024;2023-07-24T09:48:33;62.79;51.27;90.48;;
58303;Laerm;44109;52.398;7.024;2023-07-24T09:51:02;62.36;48.92;90.98;;
58303;Laerm;44109;52.398;7.024;2023-07-24T09:53:36;54.39;42.12;79.99;;
58303;Laerm;44109;52.398;7.024;2023-07-24T09:56:08;57.12;41.55;91.28;;
58303;Laerm;44109;52.398;7.024;2023-07-24T09:58:39;54.84;41.62;88.98;;
58303;Laerm;44109;52.398;7.024;2023-07-24T10:01:09;49.62;40.23;61.43;;
58303;Laerm;44109;52.398;7.024;2023-07-24T10:03:39;52.20;40.51;84.02;;
58303;Laerm;44109;52.398;7.024;2023-07-24T10:06:08;51.26;40.18;77.49;;
58303;Laerm;44109;52.398;7.024;2023-07-24T10:08:38;51.18;42.73;61.04;;
58303;Laerm;44109;52.398;7.024;2023-07-24T10:11:07;53.31;41.22;67.65;;
58303;Laerm;44109;52.398;7.024;2023-07-24T10:13:37;54.46;41.79;84.23;;
58303;Laerm;44109;52.398;7.024;2023-07-24T10:16:05;52.96;40.09;69.88;;
58303;Laerm;44109;52.398;7.024;2023-07-24T10:18:35;52.03;39.93;68.90;;
58303;Laerm;44109;52.398;7.024;2023-07-24T10:21:09;52.02;42.68;67.90;;
58303;Laerm;44109;52.398;7.024;2023-07-24T10:23:43;50.69;39.46;75.29;;
58303;Laerm;44109;52.398;7.024;2023-07-24T10:26:12;50.28;39.75;65.14;;
58303;Laerm;44109;52.398;7.024;2023-07-24T10:28:41;50.52;40.17;60.95;;
58303;Laerm;44109;52.398;7.024;2023-07-24T10:31:21;48.77;37.60;58.65;;
58303;Laerm;44109;52.398;7.024;2023-07-24T10:33:49;49.33;40.54;59.95;;
58303;Laerm;44109;52.398;7.024;2023-07-24T10:36:19;50.70;39.76;66.03;;
58303;Laerm;44109;52.398;7.024;2023-07-24T10:38:56;48.72;39.28;57.49;;
58303;Laerm;44109;52.398;7.024;2023-07-24T10:41:35;50.16;41.51;67.32;;
58303;Laerm;44109;52.398;7.024;2023-07-24T10:44:03;49.90;41.17;59.34;;
58303;Laerm;44109;52.398;7.024;2023-07-24T10:46:37;51.30;40.10;68.51;;
58303;Laerm;44109;52.398;7.024;2023-07-24T10:49:05;50.29;38.84;69.51;;
58303;Laerm;44109;52.398;7.024;2023-07-24T10:51:34;49.46;40.87;57.92;;
58303;Laerm;44109;52.398;7.024;2023-07-24T10:54:05;49.84;41.26;57.50;;
58303;Laerm;44109;52.398;7.024;2023-07-24T10:56:33;48.90;40.59;65.81;;
58303;Laerm;44109;52.398;7.024;2023-07-24T10:59:04;48.85;38.78;66.57;;
58303;Laerm;44109;52.398;7.024;2023-07-24T11:01:32;48.37;38.97;57.63;;
58303;Laerm;44109;52.398;7.024;2023-07-24T11:04:01;48.75;38.72;59.73;;
58303;Laerm;44109;52.398;7.024;2023-07-24T11:06:28;49.05;37.17;69.65;;
58303;Laerm;44109;52.398;7.024;2023-07-24T11:08:58;50.99;41.06;70.35;;
58303;Laerm;44109;52.398;7.024;2023-07-24T11:11:32;53.39;39.09;76.10;;
58303;Laerm;44109;52.398;7.024;2023-07-24T11:14:01;49.39;37.93;67.35;;
58303;Laerm;44109;52.398;7.024;2023-07-24T11:16:30;48.55;38.93;61.05;;
58303;Laerm;44109;52.398;7.024;2023-07-24T11:18:59;48.33;37.73;66.64;;
58303;Laerm;44109;52.398;7.024;2023-07-24T11:21:27;52.22;39.43;69.95;;
58303;Laerm;44109;52.398;7.024;2023-07-24T11:23:56;49.69;38.59;70.23;;
58303;Laerm;44109;52.398;7.024;2023-07-24T11:26:26;51.71;41.26;71.30;;
58303;Laerm;44109;52.398;7.024;2023-07-24T11:28:55;50.78;39.98;72.04;;
58303;Laerm;44109;52.398;7.024;2023-07-24T11:31:23;53.25;39.25;72.59;;
58303;Laerm;44109;52.398;7.024;2023-07-24T11:33:52;50.86;38.91;71.35;;
58303;Laerm;44109;52.398;7.024;2023-07-24T11:36:21;52.58;41.19;75.82;;
58303;Laerm;44109;52.398;7.024;2023-07-24T11:38:49;52.05;42.82;71.27;;
58303;Laerm;44109;52.398;7.024;2023-07-24T11:41:17;50.37;42.43;69.31;;
58303;Laerm;44109;52.398;7.024;2023-07-24T11:43:47;49.70;41.16;57.39;;
58303;Laerm;44109;52.398;7.024;2023-07-24T11:46:26;49.81;40.64;70.12;;
58303;Laerm;44109;52.398;7.024;2023-07-24T11:48:54;50.27;40.36;68.52;;
58303;Laerm;44109;52.398;7.024;2023-07-24T11:51:24;48.18;39.72;57.47;;
58303;Laerm;44109;52.398;7.024;2023-07-24T11:53:52;50.76;39.60;69.33;;
58303;Laerm;44109;52.398;7.024;2023-07-24T11:56:20;54.43;38.40;73.13;;
58303;Laerm;44109;52.398;7.024;2023-07-24T11:58:49;55.71;40.55;81.51;;
58303;Laerm;44109;52.398;7.024;2023-07-24T12:01:16;52.05;41.54;74.81;;
58303;Laerm;44109;52.398;7.024;2023-07-24T12:03:45;49.59;40.25;68.35;;
58303;Laerm;44109;52.398;7.024;2023-07-24T12:06:14;47.85;39.46;57.46;;
58303;Laerm;44109;52.398;7.024;2023-07-24T12:08:44;49.22;39.25;66.71;;
58303;Laerm;44109;52.398;7.024;2023-07-24T12:11:18;47.89;39.65;68.34;;
58303;Laerm;44109;52.398;7.024;2023-07-24T12:13:46;50.14;39.32;69.13;;
58303;Laerm;44109;52.398;7.024;2023-07-24T12:16:13;47.77;40.13;57.05;;
58303;Laerm;44109;52.398;7.024;2023-07-24T12:18:41;49.23;41.41;56.99;;
58303;Laerm;44109;52.398;7.024;2023-07-24T12:21:10;49.81;40.09;63.54;;
58303;Laerm;44109;52.398;7.024;2023-07-24T12:23:37;49.47;41.57;67.19;;
58303;Laerm;44109;52.398;7.024;2023-07-24T12:26:05;49.59;40.51;69.39;;
58303;Laerm;44109;52.398;7.024;2023-07-24T12:28:33;49.84;41.93;59.66;;
58303;Laerm;44109;52.398;7.024;2023-07-24T12:31:01;49.15;39.81;67.98;;
58303;Laerm;44109;52.398;7.024;2023-07-24T12:33:29;48.17;39.61;57.01;;
58303;Laerm;44109;52.398;7.024;2023-07-24T12:35:57;49.04;38.13;69.17;;
58303;Laerm;44109;52.398;7.024;2023-07-24T12:38:26;48.98;39.58;58.06;;
58303;Laerm;44109;52.398;7.024;2023-07-24T12:40:53;49.59;40.57;74.29;;
58303;Laerm;44109;52.398;7.024;2023-07-24T12:43:21;48.78;40.16;57.41;;
58303;Laerm;44109;52.398;7.024;2023-07-24T12:45:49;48.41;39.20;58.30;;
58303;Laerm;44109;52.398;7.024;2023-07-24T12:48:16;49.13;40.42;59.35;;
58303;Laerm;44109;52.398;7.024;2023-07-24T12:50:44;49.01;38.99;62.72;;
58303;Laerm;44109;52.398;7.024;2023-07-24T12:53:11;50.17;42.14;65.34;;
58303;Laerm;44109;52.398;7.024;2023-07-24T12:55:40;50.39;42.25;60.61;;
58303;Laerm;44109;52.398;7.024;2023-07-24T12:58:08;48.23;38.73;58.50;;
58303;Laerm;44109;52.398;7.024;2023-07-24T13:00:49;47.78;38.93;57.42;;
58303;Laerm;44109;52.398;7.024;2023-07-24T13:03:17;48.22;38.64;57.28;;
58303;Laerm;44109;52.398;7.024;2023-07-24T13:05:45;48.92;39.74;59.69;;
58303;Laerm;44109;52.398;7.024;2023-07-24T13:08:12;49.00;38.48;68.64;;
58303;Laerm;44109;52.398;7.024;2023-07-24T13:10:41;49.04;41.59;57.06;;
58303;Laerm;44109;52.398;7.024;2023-07-24T13:13:09;48.83;40.16;57.54;;
58303;Laerm;44109;52.398;7.024;2023-07-24T13:15:36;48.22;37.99;61.89;;
58303;Laerm;44109;52.398;7.024;2023-07-24T13:18:04;48.01;39.61;56.96;;
58303;Laerm;44109;52.398;7.024;2023-07-24T13:20:32;48.52;39.07;58.93;;
58303;Laerm;44109;52.398;7.024;2023-07-24T13:22:59;49.69;41.76;57.39;;
58303;Laerm;44109;52.398;7.024;2023-07-24T13:25:27;48.86;39.67;57.31;;
58303;Laerm;44109;52.398;7.024;2023-07-24T13:27:56;49.29;39.76;57.45;;
58303;Laerm;44109;52.398;7.024;2023-07-24T13:30:23;49.35;39.31;60.93;;
58303;Laerm;44109;52.398;7.024;2023-07-24T13:32:51;49.27;39.86;58.68;;
58303;Laerm;44109;52.398;7.024;2023-07-24T13:35:19;48.56;39.85;57.37;;
58303;Laerm;44109;52.398;7.024;2023-07-24T13:37:46;48.41;38.78;59.20;;
58303;Laerm;44109;52.398;7.024;2023-07-24T13:40:14;49.52;37.71;72.62;;
58303;Laerm;44109;52.398;7.024;2023-07-24T13:42:42;48.84;38.97;57.31;;
58303;Laerm;44109;52.398;7.024;2023-07-24T13:45:11;47.87;38.07;56.88;;
58303;Laerm;44109;52.398;7.024;2023-07-24T13:47:38;47.41;37.73;61.16;;
58303;Laerm;44109;52.398;7.024;2023-07-24T13:50:07;47.86;38.21;56.88;;
58303;Laerm;44109;52.398;7.024;2023-07-24T13:52:34;47.80;37.54;60.50;;